sensor_id;sensor_type;location;lat;lon;timestamp;P1;durP1;ratioP1;P2;durP2;ratioP2
505;SDS011;551;48.524;9.056;2023-12-20T00:02:13;2.43;;;2.20;;
505;SDS011;551;48.524;9.056;2023-12-20T00:04:38;3.70;;;2.43;;
505;SDS011;551;48.524;9.056;2023-12-20T00:07:04;4.03;;;3.07;;
505;SDS011;551;48.524;9.056;2023-12-20T00:09:29;3.73;;;2.90;;
505;SDS011;551;48.524;9.056;2023-12-20T00:11:55;1.90;;;1.80;;
505;SDS011;551;48.524;9.056;2023-12-20T00:14:20;3.57;;;2.93;;
505;SDS011;551;48.524;9.056;2023-12-20T00:16:46;2.90;;;2.70;;
505;SDS011;551;48.524;9.056;2023-12-20T00:19:12;4.60;;;3.10;;
505;SDS011;551;48.524;9.056;2023-12-20T00:21:37;3.77;;;2.73;;
505;SDS011;551;48.524;9.056;2023-12-20T00:24:03;2.30;;;2.10;;
505;SDS011;551;48.524;9.056;2023-12-20T00:26:29;3.30;;;3.07;;
505;SDS011;551;48.524;9.056;2023-12-20T00:28:54;2.23;;;2.03;;
505;SDS011;551;48.524;9.056;2023-12-20T00:31:20;3.83;;;2.30;;
505;SDS011;551;48.524;9.056;2023-12-20T00:33:45;2.10;;;1.90;;
505;SDS011;551;48.524;9.056;2023-12-20T00:36:12;2.43;;;2.23;;
505;SDS011;551;48.524;9.056;2023-12-20T00:38:37;1.80;;;1.63;;
505;SDS011;551;48.524;9.056;2023-12-20T00:41:03;2.47;;;2.30;;
505;SDS011;551;48.524;9.056;2023-12-20T00:43:28;2.50;;;1.97;;
505;SDS011;551;48.524;9.056;2023-12-20T00:45:54;2.07;;;1.63;;
505;SDS011;551;48.524;9.056;2023-12-20T00:48:20;2.33;;;1.80;;
505;SDS011;551;48.524;9.056;2023-12-20T00:50:46;2.43;;;2.10;;
505;SDS011;551;48.524;9.056;2023-12-20T00:53:12;4.57;;;2.43;;
505;SDS011;551;48.524;9.056;2023-12-20T00:55:37;2.60;;;2.40;;
505;SDS011;551;48.524;9.056;2023-12-20T00:58:03;2.40;;;2.20;;
505;SDS011;551;48.524;9.056;2023-12-20T01:00:28;3.00;;;2.40;;
505;SDS011;551;48.524;9.056;2023-12-20T01:02:54;2.67;;;2.47;;
505;SDS011;551;48.524;9.056;2023-12-20T01:05:19;2.50;;;2.30;;
505;SDS011;551;48.524;9.056;2023-12-20T01:07:48;3.13;;;2.50;;
505;SDS011;551;48.524;9.056;2023-12-20T01:10:14;2.47;;;2.27;;
505;SDS011;551;48.524;9.056;2023-12-20T01:12:39;3.80;;;3.23;;
505;SDS011;551;48.524;9.056;2023-12-20T01:15:05;2.43;;;2.23;;
505;SDS011;551;48.524;9.056;2023-12-20T01:17:31;2.20;;;2.10;;
505;SDS011;551;48.524;9.056;2023-12-20T01:19:56;2.67;;;2.10;;
505;SDS011;551;48.524;9.056;2023-12-20T01:22:22;2.13;;;1.83;;
505;SDS011;551;48.524;9.056;2023-12-20T01:24:47;2.40;;;2.20;;
505;SDS011;551;48.524;9.056;2023-12-20T01:27:13;2.43;;;2.20;;
505;SDS011;551;48.524;9.056;2023-12-20T01:29:38;2.17;;;2.00;;
505;SDS011;551;48.524;9.056;2023-12-20T01:32:04;2.33;;;2.13;;
505;SDS011;551;48.524;9.056;2023-12-20T01:34:30;2.17;;;1.80;;
505;SDS011;551;48.524;9.056;2023-12-20T01:36:55;2.10;;;1.97;;
505;SDS011;551;48.524;9.056;2023-12-20T01:39:21;4.50;;;2.10;;
505;SDS011;551;48.524;9.056;2023-12-20T01:41:46;5.73;;;2.40;;
505;SDS011;551;48.524;9.056;2023-12-20T01:44:12;3.17;;;2.27;;
505;SDS011;551;48.524;9.056;2023-12-20T01:46:37;4.00;;;1.70;;
505;SDS011;551;48.524;9.056;2023-12-20T01:49:03;3.30;;;1.97;;
505;SDS011;551;48.524;9.056;2023-12-20T01:51:29;2.23;;;1.90;;
505;SDS011;551;48.524;9.056;2023-12-20T01:53:58;2.23;;;1.87;;
505;SDS011;551;48.524;9.056;2023-12-20T01:56:25;1.70;;;1.60;;
505;SDS011;551;48.524;9.056;2023-12-20T01:58:52;1.87;;;1.77;;
505;SDS011;551;48.524;9.056;2023-12-20T02:01:18;2.33;;;2.13;;
505;SDS011;551;48.524;9.056;2023-12-20T02:03:44;3.63;;;1.80;;
505;SDS011;551;48.524;9.056;2023-12-20T02:06:10;3.10;;;1.50;;
505;SDS011;551;48.524;9.056;2023-12-20T02:08:36;1.70;;;1.60;;
505;SDS011;551;48.524;9.056;2023-12-20T02:11:01;1.70;;;1.50;;
505;SDS011;551;48.524;9.056;2023-12-20T02:13:27;1.60;;;1.40;;
505;SDS011;551;48.524;9.056;2023-12-20T02:15:54;3.63;;;1.63;;
505;SDS011;551;48.524;9.056;2023-12-20T02:18:19;1.53;;;1.43;;
505;SDS011;551;48.524;9.056;2023-12-20T02:20:45;1.83;;;1.40;;
505;SDS011;551;48.524;9.056;2023-12-20T02:23:12;1.63;;;1.53;;
505;SDS011;551;48.524;9.056;2023-12-20T02:25:37;1.90;;;1.80;;
505;SDS011;551;48.524;9.056;2023-12-20T02:28:03;1.97;;;1.73;;
505;SDS011;551;48.524;9.056;2023-12-20T02:30:29;2.67;;;1.57;;
505;SDS011;551;48.524;9.056;2023-12-20T02:32:55;2.10;;;1.73;;
505;SDS011;551;48.524;9.056;2023-12-20T02:35:21;1.97;;;1.70;;
505;SDS011;551;48.524;9.056;2023-12-20T02:37:46;3.73;;;2.10;;
505;SDS011;551;48.524;9.056;2023-12-20T02:40:12;1.90;;;1.80;;
505;SDS011;551;48.524;9.056;2023-12-20T02:42:37;2.47;;;1.90;;
505;SDS011;551;48.524;9.056;2023-12-20T02:45:03;2.47;;;2.27;;
505;SDS011;551;48.524;9.056;2023-12-20T02:47:29;2.40;;;2.13;;
505;SDS011;551;48.524;9.056;2023-12-20T02:49:55;2.00;;;1.90;;
505;SDS011;551;48.524;9.056;2023-12-20T02:52:21;2.03;;;1.93;;
505;SDS011;551;48.524;9.056;2023-12-20T02:54:48;2.47;;;1.90;;
505;SDS011;551;48.524;9.056;2023-12-20T02:57:13;2.00;;;1.90;;
505;SDS011;551;48.524;9.056;2023-12-20T02:59:45;2.23;;;2.13;;
505;SDS011;551;48.524;9.056;2023-12-20T03:02:10;1.70;;;1.60;;
505;SDS011;551;48.524;9.056;2023-12-20T03:04:36;2.97;;;2.10;;
505;SDS011;551;48.524;9.056;2023-12-20T03:07:01;2.07;;;1.80;;
505;SDS011;551;48.524;9.056;2023-12-20T03:09:27;2.10;;;2.00;;
505;SDS011;551;48.524;9.056;2023-12-20T03:11:52;1.80;;;1.70;;
505;SDS011;551;48.524;9.056;2023-12-20T03:14:18;3.30;;;2.23;;
505;SDS011;551;48.524;9.056;2023-12-20T03:16:47;2.23;;;1.80;;
505;SDS011;551;48.524;9.056;2023-12-20T03:19:16;1.93;;;1.80;;
505;SDS011;551;48.524;9.056;2023-12-20T03:21:42;2.40;;;2.23;;
505;SDS011;551;48.524;9.056;2023-12-20T03:24:08;2.60;;;2.30;;
505;SDS011;551;48.524;9.056;2023-12-20T03:26:33;4.50;;;2.30;;
505;SDS011;551;48.524;9.056;2023-12-20T03:28:59;4.20;;;2.53;;
505;SDS011;551;48.524;9.056;2023-12-20T03:31:24;2.20;;;2.03;;
505;SDS011;551;48.524;9.056;2023-12-20T03:33:50;2.07;;;1.97;;
505;SDS011;551;48.524;9.056;2023-12-20T03:36:17;1.90;;;1.50;;
505;SDS011;551;48.524;9.056;2023-12-20T03:38:42;1.90;;;1.80;;
505;SDS011;551;48.524;9.056;2023-12-20T03:41:08;2.23;;;1.73;;
505;SDS011;551;48.524;9.056;2023-12-20T03:43:33;2.60;;;1.47;;
505;SDS011;551;48.524;9.056;2023-12-20T03:45:59;2.30;;;2.10;;
505;SDS011;551;48.524;9.056;2023-12-20T03:48:25;1.50;;;1.40;;
505;SDS011;551;48.524;9.056;2023-12-20T03:50:50;1.53;;;1.43;;
505;SDS011;551;48.524;9.056;2023-12-20T03:53:16;2.83;;;1.67;;
505;SDS011;551;48.524;9.056;2023-12-20T03:55:42;1.50;;;1.40;;
505;SDS011;551;48.524;9.056;2023-12-20T03:58:08;1.60;;;1.50;;
505;SDS011;551;48.524;9.056;2023-12-20T04:00:34;4.57;;;2.83;;
505;SDS011;551;48.524;9.056;2023-12-20T04:03:00;2.80;;;2.30;;
505;SDS011;551;48.524;9.056;2023-12-20T04:05:25;2.43;;;2.10;;
505;SDS011;551;48.524;9.056;2023-12-20T04:07:51;2.33;;;2.10;;
505;SDS011;551;48.524;9.056;2023-12-20T04:10:16;1.83;;;1.73;;
505;SDS011;551;48.524;9.056;2023-12-20T04:12:42;2.23;;;2.13;;
505;SDS011;551;48.524;9.056;2023-12-20T04:15:07;2.10;;;2.00;;
505;SDS011;551;48.524;9.056;2023-12-20T04:17:34;9.43;;;1.97;;
505;SDS011;551;48.524;9.056;2023-12-20T04:19:59;3.90;;;1.87;;
505;SDS011;551;48.524;9.056;2023-12-20T04:22:25;1.93;;;1.70;;
505;SDS011;551;48.524;9.056;2023-12-20T04:24:50;2.23;;;2.10;;
505;SDS011;551;48.524;9.056;2023-12-20T04:27:16;2.17;;;1.47;;
505;SDS011;551;48.524;9.056;2023-12-20T04:29:41;1.60;;;1.50;;
505;SDS011;551;48.524;9.056;2023-12-20T04:32:07;1.70;;;1.60;;
505;SDS011;551;48.524;9.056;2023-12-20T04:34:33;1.60;;;1.50;;
505;SDS011;551;48.524;9.056;2023-12-20T04:36:58;1.73;;;1.63;;
505;SDS011;551;48.524;9.056;2023-12-20T04:39:24;1.63;;;1.53;;
505;SDS011;551;48.524;9.056;2023-12-20T04:41:49;1.73;;;1.63;;
505;SDS011;551;48.524;9.056;2023-12-20T04:44:15;2.23;;;1.50;;
505;SDS011;551;48.524;9.056;2023-12-20T04:46:40;2.30;;;1.70;;
505;SDS011;551;48.524;9.056;2023-12-20T04:49:06;1.10;;;1.10;;
505;SDS011;551;48.524;9.056;2023-12-20T04:51:34;1.60;;;1.50;;
505;SDS011;551;48.524;9.056;2023-12-20T04:54:01;0.80;;;0.80;;
505;SDS011;551;48.524;9.056;2023-12-20T04:56:26;0.70;;;0.70;;
505;SDS011;551;48.524;9.056;2023-12-20T04:58:52;1.90;;;0.90;;
505;SDS011;551;48.524;9.056;2023-12-20T05:01:17;1.00;;;1.00;;
505;SDS011;551;48.524;9.056;2023-12-20T05:03:43;0.90;;;0.90;;
505;SDS011;551;48.524;9.056;2023-12-20T05:06:09;1.07;;;0.90;;
505;SDS011;551;48.524;9.056;2023-12-20T05:08:35;0.90;;;0.80;;
505;SDS011;551;48.524;9.056;2023-12-20T05:11:00;7.93;;;1.13;;
505;SDS011;551;48.524;9.056;2023-12-20T05:13:26;0.73;;;0.73;;
505;SDS011;551;48.524;9.056;2023-12-20T05:15:52;0.83;;;0.83;;
505;SDS011;551;48.524;9.056;2023-12-20T05:18:17;0.70;;;0.70;;
505;SDS011;551;48.524;9.056;2023-12-20T05:20:42;1.63;;;1.23;;
505;SDS011;551;48.524;9.056;2023-12-20T05:23:08;1.93;;;1.20;;
505;SDS011;551;48.524;9.056;2023-12-20T05:25:33;2.37;;;1.10;;
505;SDS011;551;48.524;9.056;2023-12-20T05:27:59;6.27;;;1.57;;
505;SDS011;551;48.524;9.056;2023-12-20T05:30:24;1.70;;;1.40;;
505;SDS011;551;48.524;9.056;2023-12-20T05:32:50;3.87;;;1.27;;
505;SDS011;551;48.524;9.056;2023-12-20T05:35:16;3.13;;;1.70;;
505;SDS011;551;48.524;9.056;2023-12-20T05:37:42;3.60;;;2.00;;
505;SDS011;551;48.524;9.056;2023-12-20T05:40:07;2.30;;;1.93;;
505;SDS011;551;48.524;9.056;2023-12-20T05:42:36;3.77;;;2.00;;
505;SDS011;551;48.524;9.056;2023-12-20T05:45:02;2.60;;;2.40;;
505;SDS011;551;48.524;9.056;2023-12-20T05:47:29;2.03;;;1.90;;
505;SDS011;551;48.524;9.056;2023-12-20T05:49:54;5.40;;;2.50;;
505;SDS011;551;48.524;9.056;2023-12-20T05:52:20;3.93;;;2.23;;
505;SDS011;551;48.524;9.056;2023-12-20T05:54:45;3.10;;;2.33;;
505;SDS011;551;48.524;9.056;2023-12-20T05:57:11;3.53;;;2.43;;
505;SDS011;551;48.524;9.056;2023-12-20T05:59:36;5.23;;;2.80;;
505;SDS011;551;48.524;9.056;2023-12-20T06:02:03;2.50;;;2.30;;
505;SDS011;551;48.524;9.056;2023-12-20T06:04:29;4.03;;;2.90;;
505;SDS011;551;48.524;9.056;2023-12-20T06:06:55;9.43;;;3.73;;
505;SDS011;551;48.524;9.056;2023-12-20T06:09:20;4.20;;;3.80;;
505;SDS011;551;48.524;9.056;2023-12-20T06:11:46;10.57;;;3.10;;
505;SDS011;551;48.524;9.056;2023-12-20T06:14:11;7.03;;;2.37;;
505;SDS011;551;48.524;9.056;2023-12-20T06:16:37;8.50;;;2.90;;
505;SDS011;551;48.524;9.056;2023-12-20T06:19:02;1.97;;;1.57;;
505;SDS011;551;48.524;9.056;2023-12-20T06:21:28;3.07;;;1.70;;
505;SDS011;551;48.524;9.056;2023-12-20T06:23:53;2.40;;;2.20;;
505;SDS011;551;48.524;9.056;2023-12-20T06:26:19;3.17;;;2.77;;
505;SDS011;551;48.524;9.056;2023-12-20T06:28:45;3.43;;;2.00;;
505;SDS011;551;48.524;9.056;2023-12-20T06:31:11;2.03;;;1.80;;
505;SDS011;551;48.524;9.056;2023-12-20T06:33:36;2.47;;;2.27;;
505;SDS011;551;48.524;9.056;2023-12-20T06:36:06;3.27;;;2.50;;
505;SDS011;551;48.524;9.056;2023-12-20T06:38:31;2.10;;;2.00;;
505;SDS011;551;48.524;9.056;2023-12-20T06:40:57;5.07;;;2.07;;
505;SDS011;551;48.524;9.056;2023-12-20T06:43:23;1.60;;;1.50;;
505;SDS011;551;48.524;9.056;2023-12-20T06:45:49;2.27;;;1.67;;
505;SDS011;551;48.524;9.056;2023-12-20T06:48:15;1.97;;;1.77;;
505;SDS011;551;48.524;9.056;2023-12-20T06:50:41;4.13;;;1.50;;
505;SDS011;551;48.524;9.056;2023-12-20T06:53:06;3.00;;;2.47;;
505;SDS011;551;48.524;9.056;2023-12-20T06:55:33;2.40;;;2.20;;
505;SDS011;551;48.524;9.056;2023-12-20T06:58:01;5.43;;;2.67;;
505;SDS011;551;48.524;9.056;2023-12-20T07:00:27;4.47;;;2.87;;
505;SDS011;551;48.524;9.056;2023-12-20T07:02:53;2.03;;;1.93;;
505;SDS011;551;48.524;9.056;2023-12-20T07:05:19;4.80;;;2.10;;
505;SDS011;551;48.524;9.056;2023-12-20T07:07:45;1.70;;;1.60;;
505;SDS011;551;48.524;9.056;2023-12-20T07:10:11;1.80;;;1.70;;
505;SDS011;551;48.524;9.056;2023-12-20T07:12:37;2.00;;;1.90;;
505;SDS011;551;48.524;9.056;2023-12-20T07:15:03;3.30;;;2.80;;
505;SDS011;551;48.524;9.056;2023-12-20T07:17:30;3.37;;;3.07;;
505;SDS011;551;48.524;9.056;2023-12-20T07:19:58;4.00;;;3.70;;
505;SDS011;551;48.524;9.056;2023-12-20T07:22:23;3.17;;;2.97;;
505;SDS011;551;48.524;9.056;2023-12-20T07:24:49;3.43;;;3.23;;
505;SDS011;551;48.524;9.056;2023-12-20T07:27:17;3.37;;;2.87;;
505;SDS011;551;48.524;9.056;2023-12-20T07:29:42;3.07;;;2.87;;
505;SDS011;551;48.524;9.056;2023-12-20T07:32:08;2.93;;;2.73;;
505;SDS011;551;48.524;9.056;2023-12-20T07:34:33;3.93;;;2.77;;
505;SDS011;551;48.524;9.056;2023-12-20T07:36:59;2.47;;;2.27;;
505;SDS011;551;48.524;9.056;2023-12-20T07:39:24;2.40;;;2.20;;
505;SDS011;551;48.524;9.056;2023-12-20T07:41:50;3.93;;;2.70;;
505;SDS011;551;48.524;9.056;2023-12-20T07:44:15;2.10;;;1.90;;
505;SDS011;551;48.524;9.056;2023-12-20T07:46:41;2.90;;;2.20;;
505;SDS011;551;48.524;9.056;2023-12-20T07:49:06;2.60;;;2.40;;
505;SDS011;551;48.524;9.056;2023-12-20T07:51:33;2.13;;;1.90;;
505;SDS011;551;48.524;9.056;2023-12-20T07:53:59;6.80;;;2.80;;
505;SDS011;551;48.524;9.056;2023-12-20T07:56:24;2.67;;;1.87;;
505;SDS011;551;48.524;9.056;2023-12-20T07:58:50;3.57;;;2.43;;
505;SDS011;551;48.524;9.056;2023-12-20T08:01:15;4.40;;;2.67;;
505;SDS011;551;48.524;9.056;2023-12-20T08:03:42;2.50;;;2.30;;
505;SDS011;551;48.524;9.056;2023-12-20T08:06:08;3.10;;;2.60;;
505;SDS011;551;48.524;9.056;2023-12-20T08:08:33;3.20;;;2.47;;
505;SDS011;551;48.524;9.056;2023-12-20T08:10:59;1.70;;;1.60;;
505;SDS011;551;48.524;9.056;2023-12-20T08:13:25;3.30;;;2.57;;
505;SDS011;551;48.524;9.056;2023-12-20T08:15:51;6.00;;;2.33;;
505;SDS011;551;48.524;9.056;2023-12-20T08:18:17;3.20;;;2.17;;
505;SDS011;551;48.524;9.056;2023-12-20T08:20:43;2.20;;;2.00;;
505;SDS011;551;48.524;9.056;2023-12-20T08:23:08;2.80;;;2.13;;
505;SDS011;551;48.524;9.056;2023-12-20T08:25:34;4.17;;;2.47;;
505;SDS011;551;48.524;9.056;2023-12-20T08:28:02;2.23;;;2.00;;
505;SDS011;551;48.524;9.056;2023-12-20T08:30:29;2.67;;;1.97;;
505;SDS011;551;48.524;9.056;2023-12-20T08:32:56;2.27;;;2.00;;
505;SDS011;551;48.524;9.056;2023-12-20T08:35:21;3.80;;;2.90;;
505;SDS011;551;48.524;9.056;2023-12-20T08:37:47;4.23;;;2.40;;
505;SDS011;551;48.524;9.056;2023-12-20T08:40:12;2.03;;;1.93;;
505;SDS011;551;48.524;9.056;2023-12-20T08:42:38;1.77;;;1.67;;
505;SDS011;551;48.524;9.056;2023-12-20T08:45:04;2.80;;;1.97;;
505;SDS011;551;48.524;9.056;2023-12-20T08:47:30;1.70;;;1.37;;
505;SDS011;551;48.524;9.056;2023-12-20T08:49:55;3.37;;;1.70;;
505;SDS011;551;48.524;9.056;2023-12-20T08:52:23;4.80;;;1.77;;
505;SDS011;551;48.524;9.056;2023-12-20T08:54:49;1.87;;;1.70;;
505;SDS011;551;48.524;9.056;2023-12-20T08:57:16;2.30;;;2.03;;
505;SDS011;551;48.524;9.056;2023-12-20T08:59:54;1.70;;;1.60;;
505;SDS011;551;48.524;9.056;2023-12-20T09:02:19;1.80;;;1.40;;
505;SDS011;551;48.524;9.056;2023-12-20T09:04:45;1.40;;;1.30;;
505;SDS011;551;48.524;9.056;2023-12-20T09:07:23;1.40;;;1.10;;
505;SDS011;551;48.524;9.056;2023-12-20T09:09:49;1.87;;;1.20;;
505;SDS011;551;48.524;9.056;2023-12-20T09:12:17;2.10;;;1.80;;
505;SDS011;551;48.524;9.056;2023-12-20T09:14:43;1.53;;;1.43;;
505;SDS011;551;48.524;9.056;2023-12-20T09:17:09;2.20;;;1.70;;
505;SDS011;551;48.524;9.056;2023-12-20T09:19:36;2.33;;;1.47;;
505;SDS011;551;48.524;9.056;2023-12-20T09:22:02;3.30;;;2.03;;
505;SDS011;551;48.524;9.056;2023-12-20T09:24:27;2.13;;;1.80;;
505;SDS011;551;48.524;9.056;2023-12-20T09:26:53;8.23;;;1.90;;
505;SDS011;551;48.524;9.056;2023-12-20T09:29:18;2.23;;;1.70;;
505;SDS011;551;48.524;9.056;2023-12-20T09:31:44;3.60;;;2.03;;
505;SDS011;551;48.524;9.056;2023-12-20T09:34:11;3.33;;;1.60;;
505;SDS011;551;48.524;9.056;2023-12-20T09:36:37;3.93;;;1.70;;
505;SDS011;551;48.524;9.056;2023-12-20T09:39:05;4.60;;;1.60;;
505;SDS011;551;48.524;9.056;2023-12-20T09:41:31;3.90;;;1.70;;
505;SDS011;551;48.524;9.056;2023-12-20T09:43:59;1.53;;;1.43;;
505;SDS011;551;48.524;9.056;2023-12-20T09:46:27;4.73;;;1.50;;
505;SDS011;551;48.524;9.056;2023-12-20T09:48:57;8.57;;;2.10;;
505;SDS011;551;48.524;9.056;2023-12-20T09:51:25;2.33;;;1.70;;
505;SDS011;551;48.524;9.056;2023-12-20T09:53:53;1.90;;;1.63;;
505;SDS011;551;48.524;9.056;2023-12-20T09:56:20;1.30;;;1.20;;
505;SDS011;551;48.524;9.056;2023-12-20T09:58:46;4.30;;;1.70;;
505;SDS011;551;48.524;9.056;2023-12-20T10:01:12;1.60;;;1.43;;
505;SDS011;551;48.524;9.056;2023-12-20T10:03:39;2.73;;;1.47;;
505;SDS011;551;48.524;9.056;2023-12-20T10:06:06;3.40;;;2.17;;
505;SDS011;551;48.524;9.056;2023-12-20T10:08:32;4.27;;;2.03;;
505;SDS011;551;48.524;9.056;2023-12-20T10:10:57;2.70;;;1.80;;
505;SDS011;551;48.524;9.056;2023-12-20T10:13:27;2.10;;;1.90;;
505;SDS011;551;48.524;9.056;2023-12-20T10:15:54;2.53;;;1.97;;
505;SDS011;551;48.524;9.056;2023-12-20T10:18:20;3.30;;;2.03;;
505;SDS011;551;48.524;9.056;2023-12-20T10:20:46;4.20;;;2.50;;
505;SDS011;551;48.524;9.056;2023-12-20T10:23:12;4.13;;;1.70;;
505;SDS011;551;48.524;9.056;2023-12-20T10:25:39;5.17;;;2.00;;
505;SDS011;551;48.524;9.056;2023-12-20T10:28:08;2.67;;;1.70;;
505;SDS011;551;48.524;9.056;2023-12-20T10:30:35;1.40;;;1.30;;
505;SDS011;551;48.524;9.056;2023-12-20T10:33:01;4.63;;;1.93;;
505;SDS011;551;48.524;9.056;2023-12-20T10:35:27;4.70;;;1.90;;
505;SDS011;551;48.524;9.056;2023-12-20T10:37:55;2.33;;;1.70;;
505;SDS011;551;48.524;9.056;2023-12-20T10:40:21;2.33;;;1.60;;
505;SDS011;551;48.524;9.056;2023-12-20T10:42:47;2.53;;;1.90;;
505;SDS011;551;48.524;9.056;2023-12-20T10:45:15;3.00;;;1.57;;
505;SDS011;551;48.524;9.056;2023-12-20T10:47:42;4.53;;;1.77;;
505;SDS011;551;48.524;9.056;2023-12-20T10:50:11;1.57;;;1.47;;
505;SDS011;551;48.524;9.056;2023-12-20T10:52:36;2.97;;;1.50;;
505;SDS011;551;48.524;9.056;2023-12-20T10:55:03;3.97;;;1.80;;
505;SDS011;551;48.524;9.056;2023-12-20T10:57:30;4.17;;;2.10;;
505;SDS011;551;48.524;9.056;2023-12-20T10:59:55;5.63;;;1.63;;
505;SDS011;551;48.524;9.056;2023-12-20T11:02:24;1.77;;;1.63;;
505;SDS011;551;48.524;9.056;2023-12-20T11:04:52;2.43;;;1.57;;
505;SDS011;551;48.524;9.056;2023-12-20T11:07:34;2.50;;;1.90;;
505;SDS011;551;48.524;9.056;2023-12-20T11:12:38;2.37;;;1.40;;
505;SDS011;551;48.524;9.056;2023-12-20T11:15:08;2.10;;;1.70;;
505;SDS011;551;48.524;9.056;2023-12-20T11:17:35;3.00;;;1.97;;
505;SDS011;551;48.524;9.056;2023-12-20T11:20:04;2.13;;;1.37;;
505;SDS011;551;48.524;9.056;2023-12-20T11:22:31;3.77;;;1.50;;
505;SDS011;551;48.524;9.056;2023-12-20T11:25:07;8.00;;;2.30;;
505;SDS011;551;48.524;9.056;2023-12-20T11:27:34;2.60;;;2.23;;
505;SDS011;551;48.524;9.056;2023-12-20T11:30:02;4.07;;;1.67;;
505;SDS011;551;48.524;9.056;2023-12-20T11:32:35;2.70;;;1.53;;
505;SDS011;551;48.524;9.056;2023-12-20T11:37:36;4.70;;;1.80;;
505;SDS011;551;48.524;9.056;2023-12-20T11:40:05;2.70;;;1.60;;
505;SDS011;551;48.524;9.056;2023-12-20T11:42:40;2.03;;;1.83;;
505;SDS011;551;48.524;9.056;2023-12-20T11:45:14;4.60;;;1.60;;
505;SDS011;551;48.524;9.056;2023-12-20T11:47:45;2.57;;;1.60;;
505;SDS011;551;48.524;9.056;2023-12-20T11:50:11;5.40;;;1.97;;
505;SDS011;551;48.524;9.056;2023-12-20T11:52:37;3.93;;;1.57;;
505;SDS011;551;48.524;9.056;2023-12-20T11:55:02;4.43;;;1.53;;
505;SDS011;551;48.524;9.056;2023-12-20T11:57:29;2.83;;;1.67;;
505;SDS011;551;48.524;9.056;2023-12-20T11:59:55;6.30;;;2.70;;
505;SDS011;551;48.524;9.056;2023-12-20T12:02:21;4.30;;;1.70;;
505;SDS011;551;48.524;9.056;2023-12-20T12:04:48;4.30;;;2.37;;
505;SDS011;551;48.524;9.056;2023-12-20T12:07:14;4.07;;;2.03;;
505;SDS011;551;48.524;9.056;2023-12-20T12:09:39;3.40;;;2.20;;
505;SDS011;551;48.524;9.056;2023-12-20T12:12:05;9.60;;;2.33;;
505;SDS011;551;48.524;9.056;2023-12-20T12:14:31;3.50;;;1.80;;
505;SDS011;551;48.524;9.056;2023-12-20T12:16:57;4.47;;;2.00;;
505;SDS011;551;48.524;9.056;2023-12-20T12:19:23;4.53;;;2.00;;
505;SDS011;551;48.524;9.056;2023-12-20T12:21:49;3.40;;;1.90;;
505;SDS011;551;48.524;9.056;2023-12-20T12:24:16;2.57;;;1.90;;
505;SDS011;551;48.524;9.056;2023-12-20T12:26:51;1.97;;;1.77;;
505;SDS011;551;48.524;9.056;2023-12-20T12:29:16;3.50;;;1.97;;
505;SDS011;551;48.524;9.056;2023-12-20T12:31:42;8.17;;;1.83;;
505;SDS011;551;48.524;9.056;2023-12-20T12:34:08;1.70;;;1.60;;
505;SDS011;551;48.524;9.056;2023-12-20T12:36:34;5.50;;;1.77;;
505;SDS011;551;48.524;9.056;2023-12-20T12:39:02;6.18;;;2.20;;
505;SDS011;551;48.524;9.056;2023-12-20T12:41:29;2.80;;;1.60;;
505;SDS011;551;48.524;9.056;2023-12-20T12:43:55;3.17;;;1.77;;
505;SDS011;551;48.524;9.056;2023-12-20T12:46:20;5.23;;;2.13;;
505;SDS011;551;48.524;9.056;2023-12-20T12:48:46;2.77;;;1.70;;
505;SDS011;551;48.524;9.056;2023-12-20T12:51:12;3.00;;;1.70;;
505;SDS011;551;48.524;9.056;2023-12-20T12:53:38;7.43;;;2.00;;
505;SDS011;551;48.524;9.056;2023-12-20T12:56:04;5.70;;;2.20;;
505;SDS011;551;48.524;9.056;2023-12-20T12:58:30;4.00;;;1.75;;
505;SDS011;551;48.524;9.056;2023-12-20T13:00:56;3.40;;;2.10;;
505;SDS011;551;48.524;9.056;2023-12-20T13:03:22;5.30;;;2.20;;
505;SDS011;551;48.524;9.056;2023-12-20T13:05:47;6.63;;;2.30;;
505;SDS011;551;48.524;9.056;2023-12-20T13:08:13;5.10;;;1.50;;
505;SDS011;551;48.524;9.056;2023-12-20T13:10:40;8.53;;;1.40;;
505;SDS011;551;48.524;9.056;2023-12-20T13:13:05;2.90;;;2.13;;
505;SDS011;551;48.524;9.056;2023-12-20T13:15:31;7.80;;;1.80;;
505;SDS011;551;48.524;9.056;2023-12-20T13:17:56;5.03;;;1.50;;
505;SDS011;551;48.524;9.056;2023-12-20T13:20:22;5.80;;;1.63;;
505;SDS011;551;48.524;9.056;2023-12-20T13:22:48;9.97;;;1.80;;
505;SDS011;551;48.524;9.056;2023-12-20T13:25:13;6.30;;;2.23;;
505;SDS011;551;48.524;9.056;2023-12-20T13:27:39;5.33;;;1.80;;
505;SDS011;551;48.524;9.056;2023-12-20T13:30:05;5.27;;;1.73;;
505;SDS011;551;48.524;9.056;2023-12-20T13:32:31;6.68;;;2.00;;
505;SDS011;551;48.524;9.056;2023-12-20T13:34:56;4.07;;;2.40;;
505;SDS011;551;48.524;9.056;2023-12-20T13:37:22;3.97;;;1.50;;
505;SDS011;551;48.524;9.056;2023-12-20T13:39:49;6.60;;;1.90;;
505;SDS011;551;48.524;9.056;2023-12-20T13:42:15;2.53;;;1.57;;
505;SDS011;551;48.524;9.056;2023-12-20T13:44:40;9.67;;;1.80;;
505;SDS011;551;48.524;9.056;2023-12-20T13:47:06;4.10;;;1.70;;
505;SDS011;551;48.524;9.056;2023-12-20T13:49:31;4.57;;;2.57;;
505;SDS011;551;48.524;9.056;2023-12-20T13:51:57;4.87;;;2.47;;
505;SDS011;551;48.524;9.056;2023-12-20T13:54:23;5.17;;;1.90;;
505;SDS011;551;48.524;9.056;2023-12-20T13:56:49;7.57;;;2.30;;
505;SDS011;551;48.524;9.056;2023-12-20T13:59:15;4.93;;;2.00;;
505;SDS011;551;48.524;9.056;2023-12-20T14:01:41;6.83;;;2.50;;
505;SDS011;551;48.524;9.056;2023-12-20T14:04:06;3.67;;;1.90;;
505;SDS011;551;48.524;9.056;2023-12-20T14:06:32;6.57;;;2.27;;
505;SDS011;551;48.524;9.056;2023-12-20T14:08:58;5.83;;;1.80;;
505;SDS011;551;48.524;9.056;2023-12-20T14:11:27;5.72;;;1.92;;
505;SDS011;551;48.524;9.056;2023-12-20T14:13:53;5.90;;;1.90;;
505;SDS011;551;48.524;9.056;2023-12-20T14:16:23;5.50;;;1.97;;
505;SDS011;551;48.524;9.056;2023-12-20T14:18:49;5.23;;;1.63;;
505;SDS011;551;48.524;9.056;2023-12-20T14:21:16;2.50;;;1.60;;
505;SDS011;551;48.524;9.056;2023-12-20T14:23:42;2.73;;;2.53;;
505;SDS011;551;48.524;9.056;2023-12-20T14:26:08;6.43;;;2.80;;
505;SDS011;551;48.524;9.056;2023-12-20T14:28:39;3.10;;;1.80;;
505;SDS011;551;48.524;9.056;2023-12-20T14:31:06;3.30;;;1.33;;
505;SDS011;551;48.524;9.056;2023-12-20T14:33:31;1.80;;;1.60;;
505;SDS011;551;48.524;9.056;2023-12-20T14:35:57;4.57;;;1.73;;
505;SDS011;551;48.524;9.056;2023-12-20T14:38:22;3.80;;;1.70;;
505;SDS011;551;48.524;9.056;2023-12-20T14:40:48;10.63;;;2.50;;
505;SDS011;551;48.524;9.056;2023-12-20T14:43:14;5.10;;;2.27;;
505;SDS011;551;48.524;9.056;2023-12-20T14:45:41;4.53;;;2.20;;
505;SDS011;551;48.524;9.056;2023-12-20T14:48:07;3.33;;;1.67;;
505;SDS011;551;48.524;9.056;2023-12-20T14:50:32;2.30;;;2.03;;
505;SDS011;551;48.524;9.056;2023-12-20T14:52:58;5.50;;;2.17;;
505;SDS011;551;48.524;9.056;2023-12-20T14:55:24;3.20;;;2.17;;
505;SDS011;551;48.524;9.056;2023-12-20T14:57:52;3.90;;;1.57;;
505;SDS011;551;48.524;9.056;2023-12-20T15:00:18;4.83;;;1.80;;
505;SDS011;551;48.524;9.056;2023-12-20T15:02:44;3.43;;;1.70;;
505;SDS011;551;48.524;9.056;2023-12-20T15:05:10;3.50;;;1.70;;
505;SDS011;551;48.524;9.056;2023-12-20T15:07:36;13.27;;;2.33;;
505;SDS011;551;48.524;9.056;2023-12-20T15:10:01;4.57;;;2.03;;
505;SDS011;551;48.524;9.056;2023-12-20T15:12:27;6.33;;;1.50;;
505;SDS011;551;48.524;9.056;2023-12-20T15:14:53;4.77;;;1.67;;
505;SDS011;551;48.524;9.056;2023-12-20T15:17:18;4.20;;;1.87;;
505;SDS011;551;48.524;9.056;2023-12-20T15:19:44;3.17;;;1.67;;
505;SDS011;551;48.524;9.056;2023-12-20T15:22:09;2.90;;;1.80;;
505;SDS011;551;48.524;9.056;2023-12-20T15:24:38;5.50;;;1.90;;
505;SDS011;551;48.524;9.056;2023-12-20T15:27:05;5.50;;;2.30;;
505;SDS011;551;48.524;9.056;2023-12-20T15:29:31;4.10;;;1.87;;
505;SDS011;551;48.524;9.056;2023-12-20T15:31:56;4.00;;;2.07;;
505;SDS011;551;48.524;9.056;2023-12-20T15:34:22;4.53;;;2.73;;
505;SDS011;551;48.524;9.056;2023-12-20T15:36:47;2.70;;;2.07;;
505;SDS011;551;48.524;9.056;2023-12-20T15:39:13;2.07;;;1.80;;
505;SDS011;551;48.524;9.056;2023-12-20T15:41:41;9.53;;;2.37;;
505;SDS011;551;48.524;9.056;2023-12-20T15:44:07;2.30;;;1.77;;